Time;durP1;ratioP1;P1;durP2;ratioP2;P2;SDS_P1;SDS_P2;PMS_P1;PMS_P2;Temp;Humidity;BMP_temperature;BMP_pressure;BME280_temperature;BME280_humidity;BME280_pressure;Samples;Min_cycle;Max_cycle;Signal;HPM_P1;HPM_P2
2023/08/25 00:01:46;;;;;;;1.90;1.80;;;;;;;18.71;78.81;100263.06;84077;279;137496;-70
2023/08/25 00:03:48;;;;;;;1.90;1.80;;;;;;;18.74;79.04;100266.72;84260;282;25174;-67
2023/08/25 00:05:53;;;;;;;5.30;2.00;;;;;;;18.73;78.73;100271.41;84245;282;136288;-69
2023/08/25 00:07:55;;;;;;;;;;;;;;;18.70;78.64;100270.44;84347;282;23713;-69
2023/08/25 00:09:57;;;;;;;2.20;1.60;;;;;;;18.66;78.57;100269.55;84307;282;122710;-69
2023/08/25 00:11:59;;;;;;;3.60;2.50;;;;;;;18.60;78.62;100264.32;84496;282;22580;-67
2023/08/25 00:14:01;;;;;;;5.20;1.80;;;;;;;18.60;78.43;100265.28;84266;282;136258;-69
2023/08/25 00:16:05;;;;;;;4.40;2.30;;;;;;;18.62;78.10;100262.32;84268;253;137389;-68
2023/08/25 00:18:07;;;;;;;3.60;2.10;;;;;;;18.67;78.17;100262.08;84308;283;24925;-68
2023/08/25 00:20:12;;;;;;;3.20;2.20;;;;;;;18.71;77.64;100262.28;84233;282;137314;-67
2023/08/25 00:22:14;;;;;;;3.00;1.60;;;;;;;18.73;77.44;100253.05;84288;282;22550;-70
2023/08/25 00:24:15;;;;;;;4.70;1.90;;;;;;;18.77;77.40;100250.52;84247;282;137232;-69
2023/08/25 00:26:17;;;;;;;4.00;1.80;;;;;;;18.80;77.01;100247.56;84268;282;22562;-70
2023/08/25 00:28:20;;;;;;;5.10;2.50;;;;;;;18.81;76.90;100241.27;84124;282;137336;-69
2023/08/25 00:30:22;;;;;;;2.80;2.30;;;;;;;18.83;76.79;100239.74;84226;283;24060;-69
2023/08/25 00:32:28;;;;;;;3.20;2.20;;;;;;;18.85;76.41;100236.80;84197;283;136236;-68
2023/08/25 00:34:31;;;;;;;2.90;2.20;;;;;;;18.83;76.30;100234.98;84337;282;22548;-69
2023/08/25 00:36:33;;;;;;;5.20;2.90;;;;;;;18.82;76.25;100235.95;84230;282;137591;-69
2023/08/25 00:38:35;;;;;;;2.70;2.40;;;;;;;18.82;76.33;100235.41;84287;283;25882;-71
2023/08/25 00:40:37;;;;;;;2.80;2.20;;;;;;;18.87;75.94;100231.11;84177;282;137086;-69
2023/08/25 00:42:39;;;;;;;5.50;2.10;;;;;;;18.93;75.80;100228.21;84185;281;25233;-69
2023/08/25 00:44:40;;;;;;;2.60;2.40;;;;;;;18.96;75.71;100230.39;84107;282;138641;-68
2023/08/25 00:46:42;;;;;;;2.10;1.90;;;;;;;18.97;75.90;100227.90;84189;282;22546;-70
2023/08/25 00:48:45;;;;;;;8.00;2.10;;;;;;;18.97;75.95;100226.50;84083;282;137260;-68
2023/08/25 00:50:46;;;;;;;4.00;1.90;;;;;;;18.91;76.21;100224.48;84251;282;25266;-69
2023/08/25 00:52:49;;;;;;;2.60;2.10;;;;;;;18.88;76.19;100223.73;84267;282;138127;-67
2023/08/25 00:54:53;;;;;;;5.50;2.60;;;;;;;18.84;76.47;100219.94;84418;282;24118;-65
2023/08/25 00:56:56;;;;;;;2.00;1.90;;;;;;;18.79;76.62;100222.21;84130;283;136421;-69
2023/08/25 00:58:59;;;;;;;2.30;2.20;;;;;;;18.75;76.65;100220.73;84085;285;24102;-68
2023/08/25 01:01:03;;;;;;;2.10;1.80;;;;;;;18.68;76.79;100213.80;84029;283;136015;-68
2023/08/25 01:03:05;;;;;;;2.00;1.80;;;;;;;18.64;77.06;100215.27;84155;284;22545;-70
2023/08/25 01:05:08;;;;;;;3.80;2.20;;;;;;;18.57;77.52;100216.60;84063;284;137611;-69
2023/08/25 01:07:10;;;;;;;4.10;2.70;;;;;;;18.51;77.85;100211.85;84235;282;22544;-70
2023/08/25 01:09:12;;;;;;;2.40;1.90;;;;;;;18.42;78.19;100211.17;84175;284;136781;-69
2023/08/25 01:11:47;;;;;;;3.70;2.00;;;;;;;18.36;78.50;100208.08;84160;284;22595;-68
2023/08/25 01:14:06;;;;;;;2.60;1.60;;;;;;;18.29;78.87;100205.70;84328;282;137613;-67
2023/08/25 01:16:16;;;;;;;6.60;2.50;;;;;;;18.24;79.21;100208.69;84078;282;137806;-68
2023/08/25 01:18:27;;;;;;;6.70;3.30;;;;;;;18.21;79.58;100212.23;84205;282;22642;-66
2023/08/25 01:20:31;;;;;;;2.80;2.60;;;;;;;18.18;79.84;100212.35;84122;282;138225;-65
2023/08/25 01:22:56;;;;;;;4.90;2.30;;;;;;;18.16;80.12;100213.60;84360;283;22673;-67
2023/08/25 01:25:17;;;;;;;3.60;3.00;;;;;;;18.12;80.44;100212.77;84331;281;137350;-69
2023/08/25 01:27:20;;;;;;;2.90;2.70;;;;;;;18.07;80.61;100215.56;84345;282;25246;-68
2023/08/25 01:29:22;;;;;;;4.30;3.10;;;;;;;18.04;80.89;100220.29;84254;282;136338;-69
2023/08/25 01:31:24;;;;;;;6.80;2.70;;;;;;;17.99;81.28;100224.03;84189;282;26359;-66
2023/08/25 01:33:30;;;;;;;7.00;2.70;;;;;;;18.01;81.29;100226.86;84069;282;136303;-69
2023/08/25 01:35:47;;;;;;;10.10;2.80;;;;;;;17.96;81.59;100226.84;84014;284;22554;-67
2023/08/25 01:38:06;;;;;;;3.90;2.80;;;;;;;17.92;81.80;100221.40;84093;282;137204;-67
2023/08/25 01:40:34;;;;;;;2.70;2.40;;;;;;;17.87;81.97;100216.51;84093;282;137520;-66
2023/08/25 01:42:39;;;;;;;6.80;3.30;;;;;;;17.83;82.40;100217.77;84193;282;24134;-67
2023/08/25 01:44:44;;;;;;;2.50;2.40;;;;;;;17.79;82.90;100220.64;84118;270;136939;-66
2023/08/25 01:46:54;;;;;;;4.00;2.90;;;;;;;17.78;83.18;100218.57;84270;282;23024;-67
2023/08/25 01:48:58;;;;;;;3.60;2.60;;;;;;;17.77;83.56;100217.77;84151;282;137127;-66
2023/08/25 01:51:01;;;;;;;3.40;2.60;;;;;;;17.75;83.85;100222.70;84314;282;24100;-67
2023/08/25 01:53:05;;;;;;;3.40;2.30;;;;;;;17.74;83.90;100220.30;84114;282;137214;-67
2023/08/25 01:55:08;;;;;;;5.30;2.90;;;;;;;17.73;83.88;100219.36;84267;282;22569;-69
2023/08/25 01:57:10;;;;;;;4.10;2.60;;;;;;;17.74;84.05;100218.16;84119;284;136890;-70
2023/08/25 01:59:13;;;;;;;4.60;2.50;;;;;;;17.75;84.01;100218.13;84338;284;22569;-71
2023/08/25 02:01:15;;;;;;;4.00;2.90;;;;;;;17.76;84.26;100225.69;83937;284;138551;-65
2023/08/25 02:03:17;;;;;;;2.60;2.20;;;;;;;17.76;84.30;100223.81;84210;282;22543;-66
2023/08/25 02:05:19;;;;;;;3.80;2.50;;;;;;;17.77;84.26;100223.66;84145;283;137416;-66
2023/08/25 02:07:23;;;;;;;2.70;2.50;;;;;;;17.79;84.25;100226.79;84274;282;25263;-66
2023/08/25 02:09:25;;;;;;;2.60;2.40;;;;;;;17.81;84.39;100229.36;84182;283;137545;-68
2023/08/25 02:11:27;;;;;;;4.30;2.50;;;;;;;17.82;84.23;100228.54;84287;282;24198;-67
2023/08/25 02:13:28;;;;;;;3.10;2.80;;;;;;;17.79;83.91;100229.09;84116;282;137160;-67
2023/08/25 02:15:30;;;;;;;4.30;2.20;;;;;;;17.75;83.59;100228.54;84132;284;24073;-68
2023/08/25 02:17:32;;;;;;;2.80;2.60;;;;;;;17.73;83.26;100227.73;84101;282;136852;-69
2023/08/25 02:19:34;;;;;;;4.80;2.30;;;;;;;17.63;82.90;100223.29;84236;282;25287;-67
2023/08/25 02:21:38;;;;;;;3.70;2.70;;;;;;;17.64;82.84;100236.02;84239;282;136269;-67
2023/08/25 02:23:40;;;;;;;4.10;2.70;;;;;;;17.61;82.60;100235.90;84260;282;25373;-68
2023/08/25 02:25:42;;;;;;;3.70;2.50;;;;;;;17.62;82.36;100231.49;84208;282;137983;-66
2023/08/25 02:27:43;;;;;;;4.80;3.40;;;;;;;17.59;82.97;100232.23;84230;285;24132;-70
2023/08/25 02:29:45;;;;;;;3.20;2.90;;;;;;;17.64;82.59;100233.22;84094;284;137162;-69
2023/08/25 02:31:47;;;;;;;3.60;3.20;;;;;;;17.65;82.22;100223.80;84260;282;22493;-63
2023/08/25 02:33:49;;;;;;;3.90;2.40;;;;;;;17.64;82.38;100223.31;84079;284;137135;-68
2023/08/25 02:35:51;;;;;;;6.00;1.70;;;;;;;17.67;82.33;100223.91;84251;282;22660;-68
2023/08/25 02:38:00;;;;;;;3.50;3.00;;;;;;;17.67;82.36;100221.70;84120;284;137550;-68
2023/08/25 02:40:04;;;;;;;3.00;2.40;;;;;;;17.67;82.31;100223.90;84179;283;137407;-68
2023/08/25 02:42:06;;;;;;;2.50;2.30;;;;;;;17.69;82.16;100224.64;84365;283;24098;-67
2023/08/25 02:44:08;;;;;;;6.10;2.40;;;;;;;17.67;82.39;100227.56;84039;283;138718;-67
2023/08/25 02:46:10;;;;;;;3.70;2.80;;;;;;;17.64;82.45;100230.80;84074;283;24227;-66
2023/08/25 02:48:12;;;;;;;2.20;2.00;;;;;;;17.63;82.56;100234.52;84334;282;137324;-65
2023/08/25 02:50:14;;;;;;;3.00;2.60;;;;;;;17.57;82.60;100240.89;84319;283;22563;-69
2023/08/25 02:52:16;;;;;;;7.50;3.60;;;;;;;17.51;83.16;100238.50;84117;283;138449;-68
2023/08/25 02:54:17;;;;;;;3.10;2.50;;;;;;;17.48;83.42;100236.83;84245;284;22562;-66
2023/08/25 02:56:19;;;;;;;5.20;3.90;;;;;;;17.48;83.46;100239.24;84237;282;137293;-65
2023/08/25 02:58:21;;;;;;;3.80;2.70;;;;;;;17.49;83.45;100244.33;84272;282;22864;-66
2023/08/25 03:00:23;;;;;;;5.20;2.90;;;;;;;17.51;83.10;100246.46;83910;274;137965;-63
2023/08/25 03:02:28;;;;;;;5.00;2.30;;;;;;;17.51;82.97;100245.17;84278;282;22654;-64
2023/08/25 03:04:31;;;;;;;2.40;2.00;;;;;;;17.49;83.30;100246.64;84287;282;137192;-66
2023/08/25 03:06:33;;;;;;;5.40;3.30;;;;;;;17.47;83.61;100249.52;84237;282;25252;-67
2023/08/25 03:08:36;;;;;;;13.20;3.30;;;;;;;17.45;83.88;100252.64;84121;282;138561;-65
2023/08/25 03:10:41;;;;;;;5.70;3.30;;;;;;;17.45;84.27;100256.30;84267;282;26288;-65
2023/08/25 03:12:43;;;;;;;3.60;2.70;;;;;;;17.48;84.54;100254.11;84085;282;137257;-66
2023/08/25 03:14:46;;;;;;;4.70;2.30;;;;;;;17.53;84.45;100260.46;84245;282;22990;-67
2023/08/25 03:16:49;;;;;;;5.40;3.00;;;;;;;17.58;84.02;100260.95;84146;283;138697;-67
2023/08/25 03:18:52;;;;;;;2.90;2.50;;;;;;;17.63;83.39;100261.49;84508;281;23710;-69
2023/08/25 03:20:56;;;;;;;5.70;3.10;;;;;;;17.70;83.21;100262.67;84211;283;136988;-69
2023/08/25 03:22:58;;;;;;;2.30;2.10;;;;;;;17.81;82.75;100254.42;84222;284;22566;-68
2023/08/25 03:24:59;;;;;;;5.30;3.00;;;;;;;17.92;81.91;100255.13;84126;282;137618;-69
2023/08/25 03:27:03;;;;;;;5.40;3.30;;;;;;;18.07;80.91;100253.63;84134;283;24106;-67
2023/08/25 03:29:04;;;;;;;4.30;3.00;;;;;;;18.19;80.08;100257.27;84205;283;137620;-70
2023/08/25 03:31:07;;;;;;;8.00;3.60;;;;;;;18.28;79.07;100256.77;84289;284;23872;-68
2023/08/25 03:33:11;;;;;;;5.10;4.00;;;;;;;18.37;78.80;100255.00;84199;284;136710;-66
2023/08/25 03:35:18;;;;;;;4.70;2.60;;;;;;;18.50;78.32;100257.65;84374;283;22721;-68
2023/08/25 03:37:19;;;;;;;3.70;2.90;;;;;;;18.72;77.72;100261.72;84060;283;137172;-68
2023/08/25 03:39:21;;;;;;;4.50;2.60;;;;;;;19.00;76.46;100265.23;84190;283;22573;-65
2023/08/25 03:41:23;;;;;;;4.50;2.70;;;;;;;19.25;75.03;100269.62;84176;283;137261;-68
2023/08/25 03:43:26;;;;;;;3.50;2.90;;;;;;;19.47;74.38;100274.91;84211;282;22911;-68
2023/08/25 03:45:29;;;;;;;3.30;3.00;;;;;;;19.70;73.41;100278.08;84204;284;137498;-68
2023/08/25 03:47:31;;;;;;;5.10;3.00;;;;;;;19.94;72.74;100280.36;84308;282;22960;-70
2023/08/25 03:49:34;;;;;;;4.40;2.90;;;;;;;20.12;71.84;100279.77;84186;283;140488;-68
2023/08/25 03:51:36;;;;;;;4.50;3.10;;;;;;;20.21;70.64;100283.27;84261;284;22564;-68
2023/08/25 03:53:38;;;;;;;5.30;3.30;;;;;;;20.23;69.85;100288.55;84248;282;136452;-70
2023/08/25 03:55:40;;;;;;;7.20;3.40;;;;;;;20.29;69.62;100292.95;84278;282;23891;-69
2023/08/25 03:57:42;;;;;;;8.30;4.60;;;;;;;20.44;68.92;100293.70;84106;283;136220;-69
2023/08/25 03:59:44;;;;;;;7.50;3.40;;;;;;;20.62;68.32;100296.72;84229;283;22542;-68
2023/08/25 04:01:46;;;;;;;4.70;3.20;;;;;;;20.80;67.61;100296.24;83939;282;136291;-69
2023/08/25 04:03:48;;;;;;;6.10;3.20;;;;;;;21.02;66.76;100302.23;84216;282;24133;-68
2023/08/25 04:05:50;;;;;;;3.30;3.10;;;;;;;21.19;65.93;100301.82;84199;282;137049;-69
2023/08/25 04:07:53;;;;;;;2.90;2.40;;;;;;;21.30;65.20;100300.49;84284;282;25174;-68
2023/08/25 04:09:55;;;;;;;5.80;3.60;;;;;;;21.34;64.24;100301.40;84288;282;136478;-69
2023/08/25 04:11:57;;;;;;;5.80;3.50;;;;;;;21.27;63.04;100301.98;84304;282;25878;-69
2023/08/25 04:13:59;;;;;;;4.20;3.10;;;;;;;21.05;63.04;100304.05;83956;284;136052;-67
2023/08/25 04:16:02;;;;;;;2.60;2.40;;;;;;;20.81;63.42;100307.09;84154;282;23746;-70
2023/08/25 04:18:05;;;;;;;7.00;3.50;;;;;;;20.62;63.75;100309.06;84177;283;26131;-65
2023/08/25 04:20:09;;;;;;;4.30;3.30;;;;;;;20.45;64.29;100307.56;84088;283;136851;-68
2023/08/25 04:22:11;;;;;;;4.90;2.90;;;;;;;20.29;64.94;100309.08;84366;283;22588;-67
2023/08/25 04:24:13;;;;;;;4.00;3.00;;;;;;;20.18;65.92;100313.38;84130;282;137217;-66
2023/08/25 04:26:15;;;;;;;2.90;2.40;;;;;;;20.09;65.53;100310.31;84191;282;23880;-68
2023/08/25 04:28:17;;;;;;;3.70;2.70;;;;;;;20.09;65.52;100317.45;84329;282;137274;-68
2023/08/25 04:30:22;;;;;;;7.20;3.20;;;;;;;20.11;65.70;100312.98;84313;282;22582;-68
2023/08/25 04:32:26;;;;;;;5.70;3.00;;;;;;;20.13;64.90;100317.08;84181;284;136696;-68
2023/08/25 04:34:29;;;;;;;5.40;2.60;;;;;;;20.11;64.27;100318.66;84389;282;22737;-66
2023/08/25 04:36:32;;;;;;;3.50;3.20;;;;;;;20.05;64.68;100317.08;84149;284;137899;-67
2023/08/25 04:38:34;;;;;;;6.20;3.00;;;;;;;20.02;65.23;100314.54;84039;284;24282;-67
2023/08/25 04:40:35;;;;;;;3.70;2.50;;;;;;;20.00;65.12;100318.85;83542;284;592591;-66
2023/08/25 04:42:38;;;;;;;4.10;3.10;;;;;;;19.98;64.99;100317.19;84087;285;22589;-69
2023/08/25 04:44:40;;;;;;;4.10;3.20;;;;;;;20.00;65.51;100321.35;83993;283;136274;-65
2023/08/25 04:46:43;;;;;;;5.80;2.80;;;;;;;20.03;65.51;100324.99;84223;276;27061;-63
2023/08/25 04:48:46;;;;;;;4.00;2.40;;;;;;;20.06;65.67;100328.13;84146;283;136439;-67
2023/08/25 04:50:49;;;;;;;4.90;2.80;;;;;;;20.11;65.33;100324.56;84592;281;22678;-68
2023/08/25 04:52:51;;;;;;;4.00;3.30;;;;;;;20.14;65.17;100324.87;84103;283;136193;-69
2023/08/25 04:54:54;;;;;;;6.20;2.90;;;;;;;20.19;65.10;100321.09;84202;282;22718;-68
2023/08/25 04:56:56;;;;;;;2.90;2.50;;;;;;;20.41;64.54;100317.92;84174;282;137356;-67
2023/08/25 04:58:57;;;;;;;5.20;2.50;;;;;;;20.84;63.52;100313.94;84142;283;22864;-68
2023/08/25 05:00:59;;;;;;;3.60;2.70;;;;;;;21.50;61.52;100316.02;84070;282;136261;-68
2023/08/25 05:03:02;;;;;;;3.20;2.90;;;;;;;22.17;58.75;100315.15;83997;283;22539;-68
2023/08/25 05:05:07;;;;;;;6.80;3.40;;;;;;;22.84;56.51;100319.11;84169;282;136405;-68
2023/08/25 05:07:09;;;;;;;4.00;3.00;;;;;;;23.51;54.52;100313.29;86204;283;22568;-67
2023/08/25 05:09:11;;;;;;;5.00;2.30;;;;;;;24.11;52.16;100315.70;85758;282;137758;-68
2023/08/25 05:11:13;;;;;;;6.40;2.40;;;;;;;24.62;49.55;100311.73;84024;283;22505;-69
2023/08/25 05:13:15;;;;;;;5.10;1.80;;;;;;;24.95;48.56;100313.61;83972;282;136453;-68
2023/08/25 05:15:18;;;;;;;5.00;2.50;;;;;;;25.15;47.42;100308.59;84240;282;23534;-69
2023/08/25 05:17:20;;;;;;;6.20;2.30;;;;;;;25.33;47.09;100309.77;84216;282;137887;-68
2023/08/25 05:19:23;;;;;;;6.50;2.50;;;;;;;25.49;46.38;100305.85;84295;283;26392;-68
2023/08/25 05:21:25;;;;;;;4.80;2.80;;;;;;;25.64;45.95;100299.02;84089;282;137707;-68
2023/08/25 05:23:27;;;;;;;5.90;2.90;;;;;;;25.74;45.84;100295.46;84087;283;24254;-66
2023/08/25 05:25:29;;;;;;;4.70;3.60;;;;;;;25.79;46.01;100290.88;84008;283;136136;-70
2023/08/25 05:27:31;;;;;;;6.30;4.00;;;;;;;25.85;46.13;100294.63;84106;284;25243;-69
2023/08/25 05:29:33;;;;;;;6.50;4.30;;;;;;;25.87;46.16;100288.94;83985;284;136431;-70
2023/08/25 05:31:42;;;;;;;8.10;3.70;;;;;;;25.77;46.43;100284.40;84161;283;25226;-67
2023/08/25 05:34:02;;;;;;;6.20;3.90;;;;;;;25.85;46.68;100295.27;84196;282;136257;-70
2023/08/25 05:36:10;;;;;;;5.00;3.60;;;;;;;25.95;46.51;100295.24;84146;282;137659;-68
2023/08/25 05:38:12;;;;;;;2.90;2.70;;;;;;;25.94;46.29;100303.02;84219;283;22572;-73
2023/08/25 05:40:14;;;;;;;4.00;3.00;;;;;;;25.88;46.66;100295.42;84184;282;135729;-71
2023/08/25 05:42:17;;;;;;;14.10;2.90;;;;;;;25.91;46.30;100300.14;84305;282;22688;-69
2023/08/25 05:44:19;;;;;;;4.20;2.10;;;;;;;25.95;46.37;100294.27;84163;282;136505;-72
2023/08/25 05:46:21;;;;;;;6.90;2.30;;;;;;;26.05;46.12;100293.43;84196;284;25260;-74
2023/08/25 05:48:23;;;;;;;4.20;2.10;;;;;;;26.12;45.62;100296.89;84238;283;136472;-71
2023/08/25 05:50:25;;;;;;;3.60;2.60;;;;;;;26.18;45.18;100289.65;84143;285;22564;-69
2023/08/25 05:52:26;;;;;;;3.90;2.40;;;;;;;26.36;44.92;100295.42;84149;282;137887;-67
2023/08/25 05:54:29;;;;;;;3.20;2.00;;;;;;;26.44;44.69;100290.39;84169;283;23033;-70
2023/08/25 05:56:31;;;;;;;6.50;2.80;;;;;;;26.52;44.42;100290.10;84131;283;138266;-70
2023/08/25 05:58:33;;;;;;;4.50;2.60;;;;;;;26.55;44.37;100289.29;84330;283;22574;-69
2023/08/25 06:00:35;;;;;;;4.40;2.60;;;;;;;26.60;44.58;100289.84;84179;282;136295;-65
2023/08/25 06:02:37;;;;;;;5.20;2.10;;;;;;;26.79;44.21;100289.17;84161;283;22556;-72
2023/08/25 06:04:39;;;;;;;5.40;2.50;;;;;;;26.91;44.00;100287.77;84211;282;136203;-75
2023/08/25 06:06:41;;;;;;;2.50;1.70;;;;;;;27.07;43.63;100286.89;84309;282;22545;-73
2023/08/25 06:08:44;;;;;;;6.40;2.90;;;;;;;27.18;42.97;100283.86;84380;284;136742;-71
2023/08/25 06:10:47;;;;;;;6.00;2.00;;;;;;;27.19;43.24;100283.06;84334;282;22569;-70
2023/08/25 06:12:49;;;;;;;3.40;2.00;;;;;;;27.23;43.56;100282.11;84233;282;136673;-71
2023/08/25 06:14:52;;;;;;;5.60;2.60;;;;;;;27.31;43.30;100281.09;84284;283;25201;-73
2023/08/25 06:17:00;;;;;;;5.00;2.40;;;;;;;27.42;42.45;100281.59;84190;282;136357;-71
2023/08/25 06:19:02;;;;;;;2.50;2.10;;;;;;;27.42;42.61;100286.80;84295;282;22548;-70
2023/08/25 06:21:04;;;;;;;7.70;2.60;;;;;;;27.33;42.71;100284.66;84264;282;136494;-71
2023/08/25 06:23:06;;;;;;;3.90;2.40;;;;;;;27.28;43.15;100283.98;84305;282;22737;-71
2023/08/25 06:25:08;;;;;;;4.90;1.80;;;;;;;27.29;43.12;100285.98;84354;283;137782;-73
2023/08/25 06:27:10;;;;;;;5.80;2.70;;;;;;;27.28;42.97;100284.41;84412;283;26339;-74
2023/08/25 06:29:12;;;;;;;5.20;1.60;;;;;;;27.30;43.00;100288.98;84114;282;136496;-71
2023/08/25 06:31:15;;;;;;;6.90;1.60;;;;;;;27.27;42.89;100285.97;84300;270;24023;-70
2023/08/25 06:33:17;;;;;;;5.20;2.20;;;;;;;27.24;43.28;100289.77;84255;282;136427;-71
2023/08/25 06:35:19;;;;;;;4.80;1.60;;;;;;;27.28;43.63;100289.85;84220;282;22568;-75
2023/08/25 06:37:21;;;;;;;5.50;2.40;;;;;;;27.42;43.12;100292.09;84116;282;136458;-73
2023/08/25 06:39:23;;;;;;;4.70;1.90;;;;;;;27.64;42.68;100286.05;84322;281;25339;-71
2023/08/25 06:41:25;;;;;;;2.30;1.60;;;;;;;27.76;42.40;100286.45;84290;281;136309;-71
2023/08/25 06:43:28;;;;;;;2.10;1.60;;;;;;;27.78;42.26;100285.59;84407;282;22548;-73
2023/08/25 06:45:30;;;;;;;3.20;1.60;;;;;;;27.68;42.47;100286.23;84246;281;135328;-71
2023/08/25 06:47:34;;;;;;;5.30;1.60;;;;;;;27.62;42.57;100282.88;84304;281;25129;-69
2023/08/25 06:49:37;;;;;;;1.40;1.30;;;;;;;27.59;42.43;100283.35;84214;281;136328;-70
2023/08/25 06:51:39;;;;;;;1.90;1.00;;;;;;;27.59;42.72;100283.19;84281;283;24139;-74
2023/08/25 06:53:41;;;;;;;8.10;1.50;;;;;;;27.67;42.11;100278.73;84093;283;136359;-71
2023/08/25 06:55:43;;;;;;;3.10;1.30;;;;;;;27.70;42.22;100278.36;84562;281;25252;-71
2023/08/25 06:57:48;;;;;;;6.20;1.60;;;;;;;27.66;42.26;100282.98;84115;282;137553;-71
2023/08/25 06:59:51;;;;;;;2.70;0.90;;;;;;;27.54;42.09;100283.84;84054;283;22650;-70
2023/08/25 07:01:53;;;;;;;2.80;1.10;;;;;;;27.44;42.51;100283.81;84264;281;136811;-70
2023/08/25 07:03:54;;;;;;;5.00;0.70;;;;;;;27.46;42.50;100284.95;84235;281;22670;-71
2023/08/25 07:05:58;;;;;;;1.40;1.00;;;;;;;27.55;42.19;100285.48;84113;282;137567;-71
2023/08/25 07:07:59;;;;;;;2.10;0.90;;;;;;;27.62;42.08;100285.47;84363;282;24140;-74
2023/08/25 07:10:02;;;;;;;1.30;1.00;;;;;;;27.61;41.75;100284.28;84078;281;136065;-72
2023/08/25 07:12:05;;;;;;;1.50;0.80;;;;;;;27.41;42.00;100282.58;84157;282;136738;-71
2023/08/25 07:14:07;;;;;;;6.00;1.00;;;;;;;27.16;42.68;100278.88;84423;281;22554;-70
2023/08/25 07:16:08;;;;;;;1.90;0.40;;;;;;;27.00;43.41;100274.92;84181;270;136662;-72
2023/08/25 07:18:10;;;;;;;9.50;1.10;;;;;;;26.94;43.73;100267.46;84195;281;25134;-71
2023/08/25 07:20:12;;;;;;;2.10;1.20;;;;;;;26.86;43.49;100266.58;84074;281;138068;-71
2023/08/25 07:22:14;;;;;;;5.80;0.80;;;;;;;26.68;43.78;100270.04;84281;282;22561;-67
2023/08/25 07:24:16;;;;;;;2.30;0.70;;;;;;;26.51;44.19;100271.91;84143;282;138932;-70
2023/08/25 07:26:20;;;;;;;7.60;1.10;;;;;;;26.45;44.97;100270.59;84308;281;22584;-72
2023/08/25 07:28:22;;;;;;;1.80;0.90;;;;;;;26.45;44.89;100272.38;84109;283;137123;-71
2023/08/25 07:30:24;;;;;;;4.50;1.20;;;;;;;26.34;44.53;100269.09;84355;282;22571;-70
2023/08/25 07:32:26;;;;;;;2.90;0.60;;;;;;;26.20;44.91;100268.31;84155;282;136783;-71
2023/08/25 07:34:29;;;;;;;0.70;0.70;;;;;;;26.10;45.69;100268.23;84433;281;25261;-72
2023/08/25 07:36:31;;;;;;;4.50;0.50;;;;;;;26.06;45.07;100267.14;84237;282;136207;-74
2023/08/25 07:38:33;;;;;;;1.80;0.50;;;;;;;26.04;44.20;100267.77;84311;282;22550;-69
2023/08/25 07:40:35;;;;;;;2.30;1.30;;;;;;;25.94;44.24;100254.90;84144;282;150997;-72
2023/08/25 07:42:37;;;;;;;3.10;0.70;;;;;;;25.99;44.34;100267.14;84163;283;22570;-73
2023/08/25 07:44:39;;;;;;;1.00;0.90;;;;;;;25.99;44.44;100270.52;84194;282;136483;-73
2023/08/25 07:46:41;;;;;;;4.60;1.40;;;;;;;26.02;44.42;100274.84;84396;282;25177;-72
2023/08/25 07:48:45;;;;;;;2.80;2.50;;;;;;;26.05;44.56;100276.23;84286;282;136262;-69
2023/08/25 07:50:48;;;;;;;3.20;1.20;;;;;;;26.11;44.09;100275.44;84280;281;22753;-71
2023/08/25 07:52:50;;;;;;;1.60;0.90;;;;;;;26.15;44.13;100270.95;84267;281;137656;-71
2023/08/25 07:54:51;;;;;;;2.30;0.60;;;;;;;26.17;43.77;100267.10;84239;283;22753;-74
2023/08/25 07:56:54;;;;;;;2.20;0.60;;;;;;;26.13;43.86;100264.27;84098;283;135967;-69
2023/08/25 07:58:56;;;;;;;2.00;1.00;;;;;;;26.12;43.64;100262.64;84197;283;22625;-67
2023/08/25 08:00:58;;;;;;;3.10;0.50;;;;;;;26.11;43.97;100261.67;84249;282;136433;-70
2023/08/25 08:03:03;;;;;;;6.00;0.70;;;;;;;26.13;44.41;100263.33;84222;278;25212;-69
2023/08/25 08:05:06;;;;;;;2.50;1.00;;;;;;;26.12;43.79;100258.76;84375;281;136931;-73
2023/08/25 08:07:08;;;;;;;7.10;1.20;;;;;;;26.05;43.79;100258.41;84470;281;24248;-71
2023/08/25 08:09:10;;;;;;;2.00;0.70;;;;;;;25.94;44.01;100259.27;84224;281;136266;-69
2023/08/25 08:11:12;;;;;;;2.40;0.80;;;;;;;25.89;43.78;100263.84;84265;282;24142;-73
2023/08/25 08:13:14;;;;;;;3.10;0.90;;;;;;;25.87;42.99;100260.80;84280;281;137638;-74
2023/08/25 08:15:16;;;;;;;5.50;0.60;;;;;;;25.87;42.65;100265.51;84312;281;24029;-73
2023/08/25 08:17:19;;;;;;;1.60;0.90;;;;;;;25.89;42.95;100263.61;84243;281;136270;-71
2023/08/25 08:19:23;;;;;;;1.90;0.80;;;;;;;25.95;42.88;100264.28;84255;282;22572;-71
2023/08/25 08:21:25;;;;;;;3.60;1.00;;;;;;;26.00;42.78;100267.00;84083;281;136349;-72
2023/08/25 08:23:27;;;;;;;3.30;1.40;;;;;;;26.08;42.78;100270.39;84170;282;25198;-69
2023/08/25 08:25:30;;;;;;;2.90;1.40;;;;;;;26.11;42.83;100273.04;84058;281;136601;-71
2023/08/25 08:27:31;;;;;;;4.40;1.10;;;;;;;26.16;42.89;100271.59;84125;282;22547;-71
2023/08/25 08:29:33;;;;;;;3.20;0.60;;;;;;;26.18;43.08;100268.69;84151;281;137845;-70
2023/08/25 08:31:35;;;;;;;5.10;1.00;;;;;;;26.19;42.93;100267.02;84152;282;22587;-72
2023/08/25 08:33:37;;;;;;;1.20;1.10;;;;;;;26.21;42.54;100268.85;84115;282;136314;-71
2023/08/25 08:35:40;;;;;;;4.00;1.10;;;;;;;26.18;42.64;100268.84;84229;282;22599;-70
2023/08/25 08:37:41;;;;;;;4.20;1.20;;;;;;;26.15;42.90;100268.77;84271;282;136424;-69
2023/08/25 08:39:44;;;;;;;2.50;0.70;;;;;;;26.18;42.59;100266.81;84242;282;26186;-69
2023/08/25 08:43:59;;;;;;;3.90;1.00;;;;;;;26.23;42.61;100267.34;82877;305;545058;-70
2023/08/25 08:46:03;;;;;;;4.90;1.60;;;;;;;26.22;42.44;100259.98;83541;295;136293;-71
2023/08/25 08:48:06;;;;;;;3.20;1.00;;;;;;;26.33;42.50;100266.77;83675;295;135935;-71
2023/08/25 08:50:09;;;;;;;1.20;1.00;;;;;;;26.35;42.27;100268.75;84010;289;26022;-70
2023/08/25 08:52:11;;;;;;;5.30;1.10;;;;;;;26.31;42.44;100258.77;83624;289;135535;-71
2023/08/25 08:54:15;;;;;;;4.00;1.20;;;;;;;26.44;42.69;100262.01;83859;288;24100;-72
2023/08/25 08:56:18;;;;;;;1.20;0.50;;;;;;;26.55;42.68;100258.96;83920;288;136393;-70
2023/08/25 08:58:21;;;;;;;2.30;0.90;;;;;;;26.66;42.34;100257.44;83755;286;666740;-70
2023/08/25 09:00:23;;;;;;;2.70;0.50;;;;;;;26.80;42.10;100252.67;84177;286;136335;-65
2023/08/25 09:02:30;;;;;;;3.30;1.30;;;;;;;26.88;42.23;100254.13;83936;287;24105;-69
2023/08/25 09:04:34;;;;;;;3.10;0.60;;;;;;;26.95;42.08;100251.80;84098;287;137196;-65
2023/08/25 09:06:38;;;;;;;3.50;0.60;;;;;;;26.97;41.29;100248.98;84035;287;22732;-70
2023/08/25 09:08:39;;;;;;;2.00;0.60;;;;;;;26.96;40.51;100248.29;83837;287;136226;-69
2023/08/25 09:10:41;;;;;;;0.70;0.60;;;;;;;26.94;40.69;100245.39;84047;288;23750;-67
2023/08/25 09:12:43;;;;;;;2.80;0.50;;;;;;;26.97;40.88;100243.48;83882;287;136216;-66
2023/08/25 09:14:46;;;;;;;2.00;0.80;;;;;;;26.96;40.81;100228.34;83975;287;24108;-69
2023/08/25 09:16:48;;;;;;;1.70;0.60;;;;;;;27.12;40.52;100241.52;83996;287;136246;-67
2023/08/25 09:18:52;;;;;;;6.70;0.80;;;;;;;27.18;40.57;100242.65;84357;282;22547;-73
2023/08/25 09:20:54;;;;;;;2.60;0.70;;;;;;;27.21;40.43;100244.08;84677;282;136758;-70
2023/08/25 09:22:57;;;;;;;2.80;0.60;;;;;;;27.25;40.05;100241.78;84544;282;25177;-67
2023/08/25 09:24:59;;;;;;;1.60;0.50;;;;;;;27.29;40.28;100238.16;84099;282;137030;-66
2023/08/25 09:27:00;;;;;;;2.40;0.60;;;;;;;27.36;40.58;100238.85;84302;282;22546;-68
2023/08/25 09:29:03;;;;;;;1.90;0.60;;;;;;;27.43;40.42;100234.23;84128;283;136569;-68
2023/08/25 09:31:05;;;;;;;3.20;0.60;;;;;;;27.49;40.43;100235.79;84292;283;23946;-67
2023/08/25 09:33:13;;;;;;;1.90;0.70;;;;;;;27.50;40.30;100234.46;84116;276;136113;-66
2023/08/25 09:35:21;;;;;;;2.90;0.60;;;;;;;27.51;40.67;100235.98;84244;278;22567;-66
2023/08/25 09:37:41;;;;;;;3.00;1.00;;;;;;;27.51;40.46;100229.70;84241;282;137423;-67
2023/08/25 09:39:43;;;;;;;1.40;0.70;;;;;;;27.44;40.23;100230.33;84334;282;22550;-69